sensor_id;sensor_type;location;lat;lon;timestamp;P1;durP1;ratioP1;P2;durP2;ratioP2
35530;SDS011;21637;53.352;-6.356;2023-08-24T00:02:02;4.50;;;2.00;;
35530;SDS011;21637;53.352;-6.356;2023-08-24T00:04:28;7.90;;;2.10;;
35530;SDS011;21637;53.352;-6.356;2023-08-24T00:06:54;10.88;;;3.10;;
35530;SDS011;21637;53.352;-6.356;2023-08-24T00:09:20;6.85;;;2.50;;
35530;SDS011;21637;53.352;-6.356;2023-08-24T00:11:46;9.73;;;3.33;;
35530;SDS011;21637;53.352;-6.356;2023-08-24T00:14:12;6.53;;;2.20;;
35530;SDS011;21637;53.352;-6.356;2023-08-24T00:16:38;7.60;;;2.13;;
35530;SDS011;21637;53.352;-6.356;2023-08-24T00:19:04;8.95;;;2.38;;
35530;SDS011;21637;53.352;-6.356;2023-08-24T00:21:30;6.10;;;2.58;;
35530;SDS011;21637;53.352;-6.356;2023-08-24T00:23:55;13.27;;;2.67;;
35530;SDS011;21637;53.352;-6.356;2023-08-24T00:26:21;8.50;;;2.63;;
35530;SDS011;21637;53.352;-6.356;2023-08-24T00:28:48;7.60;;;2.35;;
35530;SDS011;21637;53.352;-6.356;2023-08-24T00:31:17;8.07;;;2.30;;
35530;SDS011;21637;53.352;-6.356;2023-08-24T00:33:42;7.30;;;2.58;;
35530;SDS011;21637;53.352;-6.356;2023-08-24T00:36:08;7.88;;;2.47;;
35530;SDS011;21637;53.352;-6.356;2023-08-24T00:38:34;5.65;;;2.63;;
35530;SDS011;21637;53.352;-6.356;2023-08-24T00:40:59;4.97;;;2.13;;
35530;SDS011;21637;53.352;-6.356;2023-08-24T00:43:26;7.18;;;2.72;;
35530;SDS011;21637;53.352;-6.356;2023-08-24T00:45:52;9.27;;;2.67;;
35530;SDS011;21637;53.352;-6.356;2023-08-24T00:48:21;9.07;;;3.28;;
35530;SDS011;21637;53.352;-6.356;2023-08-24T00:50:54;7.35;;;2.58;;
35530;SDS011;21637;53.352;-6.356;2023-08-24T00:53:20;6.90;;;2.42;;
35530;SDS011;21637;53.352;-6.356;2023-08-24T00:55:49;9.35;;;2.53;;
35530;SDS011;21637;53.352;-6.356;2023-08-24T00:58:15;10.75;;;3.10;;
35530;SDS011;21637;53.352;-6.356;2023-08-24T01:00:42;9.55;;;2.90;;
35530;SDS011;21637;53.352;-6.356;2023-08-24T01:03:08;8.40;;;3.00;;
35530;SDS011;21637;53.352;-6.356;2023-08-24T01:05:34;6.35;;;3.30;;
35530;SDS011;21637;53.352;-6.356;2023-08-24T01:08:00;9.35;;;2.60;;
35530;SDS011;21637;53.352;-6.356;2023-08-24T01:10:27;6.28;;;3.20;;
35530;SDS011;21637;53.352;-6.356;2023-08-24T01:13:13;8.93;;;3.10;;
35530;SDS011;21637;53.352;-6.356;2023-08-24T01:18:25;7.50;;;2.70;;
35530;SDS011;21637;53.352;-6.356;2023-08-24T01:20:52;7.40;;;2.05;;
35530;SDS011;21637;53.352;-6.356;2023-08-24T01:23:34;15.95;;;3.13;;
35530;SDS011;21637;53.352;-6.356;2023-08-24T01:26:08;7.00;;;2.58;;
35530;SDS011;21637;53.352;-6.356;2023-08-24T01:28:52;8.13;;;2.53;;
35530;SDS011;21637;53.352;-6.356;2023-08-24T01:31:19;6.78;;;2.38;;
35530;SDS011;21637;53.352;-6.356;2023-08-24T01:33:44;8.25;;;2.38;;
35530;SDS011;21637;53.352;-6.356;2023-08-24T01:36:11;6.35;;;2.42;;
35530;SDS011;21637;53.352;-6.356;2023-08-24T01:38:39;7.00;;;2.25;;
35530;SDS011;21637;53.352;-6.356;2023-08-24T01:43:52;5.90;;;2.30;;
35530;SDS011;21637;53.352;-6.356;2023-08-24T01:46:19;8.00;;;2.70;;
35530;SDS011;21637;53.352;-6.356;2023-08-24T01:48:47;8.82;;;2.30;;
35530;SDS011;21637;53.352;-6.356;2023-08-24T01:51:14;7.90;;;2.17;;
35530;SDS011;21637;53.352;-6.356;2023-08-24T01:53:41;6.78;;;2.60;;
35530;SDS011;21637;53.352;-6.356;2023-08-24T01:56:08;4.97;;;2.10;;
35530;SDS011;21637;53.352;-6.356;2023-08-24T01:58:35;8.30;;;2.42;;
35530;SDS011;21637;53.352;-6.356;2023-08-24T02:01:01;6.03;;;2.30;;
35530;SDS011;21637;53.352;-6.356;2023-08-24T02:03:26;7.00;;;2.15;;
35530;SDS011;21637;53.352;-6.356;2023-08-24T02:05:52;7.05;;;2.15;;
35530;SDS011;21637;53.352;-6.356;2023-08-24T02:08:18;7.75;;;2.58;;
35530;SDS011;21637;53.352;-6.356;2023-08-24T02:10:43;6.88;;;2.25;;
35530;SDS011;21637;53.352;-6.356;2023-08-24T02:13:09;6.05;;;2.30;;
35530;SDS011;21637;53.352;-6.356;2023-08-24T02:15:36;5.22;;;2.40;;
35530;SDS011;21637;53.352;-6.356;2023-08-24T02:18:03;5.13;;;2.08;;
35530;SDS011;21637;53.352;-6.356;2023-08-24T02:20:29;7.40;;;2.25;;
35530;SDS011;21637;53.352;-6.356;2023-08-24T02:22:55;5.75;;;2.30;;
35530;SDS011;21637;53.352;-6.356;2023-08-24T02:25:20;9.05;;;2.75;;
35530;SDS011;21637;53.352;-6.356;2023-08-24T02:27:46;5.32;;;2.28;;
35530;SDS011;21637;53.352;-6.356;2023-08-24T02:30:13;7.55;;;2.38;;
35530;SDS011;21637;53.352;-6.356;2023-08-24T02:32:39;6.00;;;2.40;;
35530;SDS011;21637;53.352;-6.356;2023-08-24T02:35:05;5.95;;;2.78;;
35530;SDS011;21637;53.352;-6.356;2023-08-24T02:37:31;8.75;;;2.53;;
35530;SDS011;21637;53.352;-6.356;2023-08-24T02:39:57;7.10;;;2.60;;
35530;SDS011;21637;53.352;-6.356;2023-08-24T02:42:23;9.93;;;3.47;;
35530;SDS011;21637;53.352;-6.356;2023-08-24T02:44:48;8.18;;;2.60;;
35530;SDS011;21637;53.352;-6.356;2023-08-24T02:47:14;5.53;;;2.50;;
35530;SDS011;21637;53.352;-6.356;2023-08-24T02:49:40;5.97;;;2.58;;
35530;SDS011;21637;53.352;-6.356;2023-08-24T02:52:06;6.35;;;2.38;;
35530;SDS011;21637;53.352;-6.356;2023-08-24T02:54:32;6.13;;;2.60;;
35530;SDS011;21637;53.352;-6.356;2023-08-24T02:56:57;7.93;;;2.33;;
35530;SDS011;21637;53.352;-6.356;2023-08-24T02:59:23;3.53;;;2.50;;
35530;SDS011;21637;53.352;-6.356;2023-08-24T03:01:49;4.40;;;2.53;;
35530;SDS011;21637;53.352;-6.356;2023-08-24T03:04:15;9.38;;;2.78;;
35530;SDS011;21637;53.352;-6.356;2023-08-24T03:06:40;4.45;;;2.20;;
35530;SDS011;21637;53.352;-6.356;2023-08-24T03:09:09;7.50;;;2.60;;
35530;SDS011;21637;53.352;-6.356;2023-08-24T03:11:35;5.93;;;2.53;;
35530;SDS011;21637;53.352;-6.356;2023-08-24T03:14:00;3.38;;;2.15;;
35530;SDS011;21637;53.352;-6.356;2023-08-24T03:16:26;6.72;;;2.50;;
35530;SDS011;21637;53.352;-6.356;2023-08-24T03:18:52;7.15;;;2.35;;
35530;SDS011;21637;53.352;-6.356;2023-08-24T03:21:18;5.13;;;2.25;;
35530;SDS011;21637;53.352;-6.356;2023-08-24T03:23:43;8.88;;;2.40;;
35530;SDS011;21637;53.352;-6.356;2023-08-24T03:26:09;5.55;;;2.38;;
35530;SDS011;21637;53.352;-6.356;2023-08-24T03:28:35;8.80;;;2.45;;
35530;SDS011;21637;53.352;-6.356;2023-08-24T03:31:00;8.25;;;2.53;;
35530;SDS011;21637;53.352;-6.356;2023-08-24T03:33:26;6.75;;;2.50;;
35530;SDS011;21637;53.352;-6.356;2023-08-24T03:35:53;7.38;;;2.30;;
35530;SDS011;21637;53.352;-6.356;2023-08-24T03:38:19;8.20;;;2.88;;
35530;SDS011;21637;53.352;-6.356;2023-08-24T03:40:44;4.03;;;1.80;;
35530;SDS011;21637;53.352;-6.356;2023-08-24T03:43:10;3.85;;;2.00;;
35530;SDS011;21637;53.352;-6.356;2023-08-24T03:45:36;5.57;;;2.38;;
35530;SDS011;21637;53.352;-6.356;2023-08-24T03:48:02;5.95;;;2.50;;
35530;SDS011;21637;53.352;-6.356;2023-08-24T03:50:28;6.78;;;2.38;;
35530;SDS011;21637;53.352;-6.356;2023-08-24T03:52:53;6.60;;;2.50;;
35530;SDS011;21637;53.352;-6.356;2023-08-24T03:55:20;9.35;;;3.05;;
35530;SDS011;21637;53.352;-6.356;2023-08-24T03:57:46;7.32;;;2.53;;
35530;SDS011;21637;53.352;-6.356;2023-08-24T04:00:12;5.97;;;2.38;;
35530;SDS011;21637;53.352;-6.356;2023-08-24T04:02:39;6.07;;;2.40;;
35530;SDS011;21637;53.352;-6.356;2023-08-24T04:05:06;6.95;;;2.70;;
35530;SDS011;21637;53.352;-6.356;2023-08-24T04:07:32;6.50;;;2.70;;
35530;SDS011;21637;53.352;-6.356;2023-08-24T04:10:01;5.25;;;2.55;;
35530;SDS011;21637;53.352;-6.356;2023-08-24T04:12:30;5.47;;;2.53;;
35530;SDS011;21637;53.352;-6.356;2023-08-24T04:14:56;5.88;;;2.60;;
35530;SDS011;21637;53.352;-6.356;2023-08-24T04:17:23;6.90;;;2.92;;
35530;SDS011;21637;53.352;-6.356;2023-08-24T04:19:49;5.88;;;2.40;;
35530;SDS011;21637;53.352;-6.356;2023-08-24T04:22:15;6.28;;;2.92;;
35530;SDS011;21637;53.352;-6.356;2023-08-24T04:24:41;6.47;;;2.60;;
35530;SDS011;21637;53.352;-6.356;2023-08-24T04:27:06;4.40;;;2.00;;
35530;SDS011;21637;53.352;-6.356;2023-08-24T04:29:32;4.32;;;2.40;;
35530;SDS011;21637;53.352;-6.356;2023-08-24T04:31:58;8.30;;;3.17;;
35530;SDS011;21637;53.352;-6.356;2023-08-24T04:34:24;6.18;;;2.72;;
35530;SDS011;21637;53.352;-6.356;2023-08-24T04:36:49;3.90;;;2.63;;
35530;SDS011;21637;53.352;-6.356;2023-08-24T04:39:15;7.95;;;3.05;;
35530;SDS011;21637;53.352;-6.356;2023-08-24T04:41:43;9.70;;;2.85;;
35530;SDS011;21637;53.352;-6.356;2023-08-24T04:44:09;8.93;;;2.67;;
35530;SDS011;21637;53.352;-6.356;2023-08-24T04:46:35;6.00;;;2.70;;
35530;SDS011;21637;53.352;-6.356;2023-08-24T04:49:01;7.15;;;2.75;;
35530;SDS011;21637;53.352;-6.356;2023-08-24T04:51:26;7.95;;;2.95;;
35530;SDS011;21637;53.352;-6.356;2023-08-24T04:53:53;9.05;;;3.28;;
35530;SDS011;21637;53.352;-6.356;2023-08-24T04:56:19;7.25;;;3.22;;
35530;SDS011;21637;53.352;-6.356;2023-08-24T04:58:54;6.95;;;2.70;;
35530;SDS011;21637;53.352;-6.356;2023-08-24T05:01:25;6.78;;;2.65;;
35530;SDS011;21637;53.352;-6.356;2023-08-24T05:03:52;7.57;;;2.95;;
35530;SDS011;21637;53.352;-6.356;2023-08-24T05:06:18;9.10;;;3.20;;
35530;SDS011;21637;53.352;-6.356;2023-08-24T05:08:45;13.25;;;3.67;;
35530;SDS011;21637;53.352;-6.356;2023-08-24T05:11:16;9.32;;;3.67;;
35530;SDS011;21637;53.352;-6.356;2023-08-24T05:13:43;7.88;;;3.30;;
35530;SDS011;21637;53.352;-6.356;2023-08-24T05:16:09;7.57;;;2.95;;
35530;SDS011;21637;53.352;-6.356;2023-08-24T05:18:36;5.05;;;2.42;;
35530;SDS011;21637;53.352;-6.356;2023-08-24T05:21:02;11.48;;;3.97;;
35530;SDS011;21637;53.352;-6.356;2023-08-24T05:23:28;5.88;;;3.53;;
35530;SDS011;21637;53.352;-6.356;2023-08-24T05:25:56;8.35;;;3.75;;
35530;SDS011;21637;53.352;-6.356;2023-08-24T05:28:22;8.45;;;3.03;;
35530;SDS011;21637;53.352;-6.356;2023-08-24T05:30:50;10.57;;;3.22;;
35530;SDS011;21637;53.352;-6.356;2023-08-24T05:33:20;10.55;;;3.53;;
35530;SDS011;21637;53.352;-6.356;2023-08-24T05:35:47;7.53;;;3.25;;
35530;SDS011;21637;53.352;-6.356;2023-08-24T05:38:14;6.25;;;2.88;;
35530;SDS011;21637;53.352;-6.356;2023-08-24T05:40:40;9.55;;;3.60;;
35530;SDS011;21637;53.352;-6.356;2023-08-24T05:43:07;8.05;;;3.03;;
35530;SDS011;21637;53.352;-6.356;2023-08-24T05:45:34;7.95;;;3.63;;
35530;SDS011;21637;53.352;-6.356;2023-08-24T05:48:00;7.32;;;3.10;;
35530;SDS011;21637;53.352;-6.356;2023-08-24T05:50:26;8.02;;;2.92;;
35530;SDS011;21637;53.352;-6.356;2023-08-24T05:52:52;8.48;;;3.25;;
35530;SDS011;21637;53.352;-6.356;2023-08-24T05:55:17;3.75;;;2.65;;
35530;SDS011;21637;53.352;-6.356;2023-08-24T05:57:43;8.88;;;2.92;;
35530;SDS011;21637;53.352;-6.356;2023-08-24T06:00:09;7.30;;;3.17;;
35530;SDS011;21637;53.352;-6.356;2023-08-24T06:02:36;6.07;;;3.13;;
35530;SDS011;21637;53.352;-6.356;2023-08-24T06:05:02;10.27;;;3.40;;
35530;SDS011;21637;53.352;-6.356;2023-08-24T06:07:28;7.75;;;3.50;;
35530;SDS011;21637;53.352;-6.356;2023-08-24T06:09:56;7.07;;;3.28;;
35530;SDS011;21637;53.352;-6.356;2023-08-24T06:12:21;8.40;;;3.15;;
35530;SDS011;21637;53.352;-6.356;2023-08-24T06:14:47;7.90;;;3.40;;
35530;SDS011;21637;53.352;-6.356;2023-08-24T06:17:13;10.27;;;3.13;;
35530;SDS011;21637;53.352;-6.356;2023-08-24T06:19:38;9.60;;;3.47;;
35530;SDS011;21637;53.352;-6.356;2023-08-24T06:22:04;6.03;;;3.47;;
35530;SDS011;21637;53.352;-6.356;2023-08-24T06:24:30;7.55;;;3.38;;
35530;SDS011;21637;53.352;-6.356;2023-08-24T06:26:56;5.18;;;3.22;;
35530;SDS011;21637;53.352;-6.356;2023-08-24T06:29:22;5.05;;;3.10;;
35530;SDS011;21637;53.352;-6.356;2023-08-24T06:31:48;8.90;;;3.03;;
35530;SDS011;21637;53.352;-6.356;2023-08-24T06:34:13;11.43;;;3.20;;
35530;SDS011;21637;53.352;-6.356;2023-08-24T06:36:39;19.00;;;3.90;;
35530;SDS011;21637;53.352;-6.356;2023-08-24T06:39:05;8.73;;;3.47;;
35530;SDS011;21637;53.352;-6.356;2023-08-24T06:41:36;6.43;;;2.90;;
35530;SDS011;21637;53.352;-6.356;2023-08-24T06:44:02;7.10;;;3.28;;
35530;SDS011;21637;53.352;-6.356;2023-08-24T06:46:28;7.68;;;3.42;;
35530;SDS011;21637;53.352;-6.356;2023-08-24T06:48:54;7.82;;;3.40;;
35530;SDS011;21637;53.352;-6.356;2023-08-24T06:51:20;6.25;;;2.85;;
35530;SDS011;21637;53.352;-6.356;2023-08-24T06:53:46;4.85;;;2.75;;
35530;SDS011;21637;53.352;-6.356;2023-08-24T06:56:13;4.50;;;2.78;;
35530;SDS011;21637;53.352;-6.356;2023-08-24T06:58:45;8.87;;;3.10;;
35530;SDS011;21637;53.352;-6.356;2023-08-24T07:01:12;5.63;;;3.00;;
35530;SDS011;21637;53.352;-6.356;2023-08-24T07:03:38;9.98;;;3.38;;
35530;SDS011;21637;53.352;-6.356;2023-08-24T07:06:07;7.80;;;3.53;;
35530;SDS011;21637;53.352;-6.356;2023-08-24T07:08:33;7.88;;;3.65;;
35530;SDS011;21637;53.352;-6.356;2023-08-24T07:10:59;7.45;;;4.30;;
35530;SDS011;21637;53.352;-6.356;2023-08-24T07:13:25;12.82;;;5.47;;
35530;SDS011;21637;53.352;-6.356;2023-08-24T07:15:52;11.40;;;5.75;;
35530;SDS011;21637;53.352;-6.356;2023-08-24T07:18:17;14.70;;;6.90;;
35530;SDS011;21637;53.352;-6.356;2023-08-24T07:20:43;12.98;;;6.45;;
35530;SDS011;21637;53.352;-6.356;2023-08-24T07:23:09;13.70;;;6.13;;
35530;SDS011;21637;53.352;-6.356;2023-08-24T07:25:35;13.15;;;6.40;;
35530;SDS011;21637;53.352;-6.356;2023-08-24T07:28:01;11.63;;;5.20;;
35530;SDS011;21637;53.352;-6.356;2023-08-24T07:30:28;10.85;;;5.97;;
35530;SDS011;21637;53.352;-6.356;2023-08-24T07:32:54;12.50;;;6.05;;
35530;SDS011;21637;53.352;-6.356;2023-08-24T07:35:20;9.32;;;4.53;;
35530;SDS011;21637;53.352;-6.356;2023-08-24T07:37:49;10.43;;;5.15;;
35530;SDS011;21637;53.352;-6.356;2023-08-24T07:40:16;7.95;;;4.22;;
35530;SDS011;21637;53.352;-6.356;2023-08-24T07:42:45;9.98;;;4.80;;
35530;SDS011;21637;53.352;-6.356;2023-08-24T07:45:12;10.43;;;4.78;;
35530;SDS011;21637;53.352;-6.356;2023-08-24T07:47:39;6.40;;;4.03;;
35530;SDS011;21637;53.352;-6.356;2023-08-24T07:50:05;9.40;;;4.40;;
35530;SDS011;21637;53.352;-6.356;2023-08-24T07:52:32;9.48;;;4.30;;
35530;SDS011;21637;53.352;-6.356;2023-08-24T07:54:58;7.75;;;4.07;;
35530;SDS011;21637;53.352;-6.356;2023-08-24T07:57:25;8.23;;;3.50;;
35530;SDS011;21637;53.352;-6.356;2023-08-24T07:59:52;7.60;;;3.50;;
35530;SDS011;21637;53.352;-6.356;2023-08-24T08:02:17;6.88;;;3.30;;
35530;SDS011;21637;53.352;-6.356;2023-08-24T08:04:43;5.45;;;3.10;;
35530;SDS011;21637;53.352;-6.356;2023-08-24T08:07:09;8.43;;;3.20;;
35530;SDS011;21637;53.352;-6.356;2023-08-24T08:09:38;6.97;;;3.15;;
35530;SDS011;21637;53.352;-6.356;2023-08-24T08:12:04;7.72;;;3.25;;
35530;SDS011;21637;53.352;-6.356;2023-08-24T08:14:30;7.22;;;3.33;;
35530;SDS011;21637;53.352;-6.356;2023-08-24T08:16:56;6.65;;;2.88;;
35530;SDS011;21637;53.352;-6.356;2023-08-24T08:19:21;7.25;;;3.17;;
35530;SDS011;21637;53.352;-6.356;2023-08-24T08:21:50;5.18;;;2.45;;
35530;SDS011;21637;53.352;-6.356;2023-08-24T08:24:16;9.75;;;2.55;;
35530;SDS011;21637;53.352;-6.356;2023-08-24T08:26:42;4.88;;;1.90;;
35530;SDS011;21637;53.352;-6.356;2023-08-24T08:29:07;10.45;;;2.55;;
35530;SDS011;21637;53.352;-6.356;2023-08-24T08:31:33;6.57;;;2.30;;
35530;SDS011;21637;53.352;-6.356;2023-08-24T08:33:59;7.65;;;2.03;;
35530;SDS011;21637;53.352;-6.356;2023-08-24T08:36:24;6.55;;;1.70;;
35530;SDS011;21637;53.352;-6.356;2023-08-24T08:38:50;6.05;;;2.10;;
35530;SDS011;21637;53.352;-6.356;2023-08-24T08:41:16;6.70;;;1.55;;
35530;SDS011;21637;53.352;-6.356;2023-08-24T08:43:45;7.50;;;1.73;;
35530;SDS011;21637;53.352;-6.356;2023-08-24T08:46:12;4.53;;;1.52;;
35530;SDS011;21637;53.352;-6.356;2023-08-24T08:48:40;4.35;;;1.40;;
35530;SDS011;21637;53.352;-6.356;2023-08-24T08:51:07;4.72;;;1.70;;
35530;SDS011;21637;53.352;-6.356;2023-08-24T08:53:34;5.45;;;1.40;;
35530;SDS011;21637;53.352;-6.356;2023-08-24T08:56:00;2.95;;;1.40;;
35530;SDS011;21637;53.352;-6.356;2023-08-24T08:58:29;9.00;;;1.70;;
35530;SDS011;21637;53.352;-6.356;2023-08-24T09:00:56;5.30;;;1.75;;
35530;SDS011;21637;53.352;-6.356;2023-08-24T09:03:25;6.40;;;1.70;;
35530;SDS011;21637;53.352;-6.356;2023-08-24T09:05:52;6.97;;;1.50;;
35530;SDS011;21637;53.352;-6.356;2023-08-24T09:08:18;7.97;;;1.45;;
35530;SDS011;21637;53.352;-6.356;2023-08-24T09:10:45;3.22;;;1.13;;
35530;SDS011;21637;53.352;-6.356;2023-08-24T09:13:10;5.93;;;1.00;;
35530;SDS011;21637;53.352;-6.356;2023-08-24T09:15:37;3.28;;;1.23;;
35530;SDS011;21637;53.352;-6.356;2023-08-24T09:18:03;4.95;;;0.90;;
35530;SDS011;21637;53.352;-6.356;2023-08-24T09:20:29;5.75;;;1.17;;
35530;SDS011;21637;53.352;-6.356;2023-08-24T09:22:55;4.28;;;1.40;;
35530;SDS011;21637;53.352;-6.356;2023-08-24T09:25:22;2.25;;;0.80;;
35530;SDS011;21637;53.352;-6.356;2023-08-24T09:28:02;3.40;;;0.93;;
35530;SDS011;21637;53.352;-6.356;2023-08-24T09:30:36;5.95;;;1.15;;
35530;SDS011;21637;53.352;-6.356;2023-08-24T09:33:03;2.75;;;0.82;;
35530;SDS011;21637;53.352;-6.356;2023-08-24T09:35:34;7.30;;;0.98;;
35530;SDS011;21637;53.352;-6.356;2023-08-24T09:38:16;5.00;;;1.30;;
35530;SDS011;21637;53.352;-6.356;2023-08-24T09:40:52;5.10;;;1.05;;
35530;SDS011;21637;53.352;-6.356;2023-08-24T09:43:21;5.65;;;0.93;;
35530;SDS011;21637;53.352;-6.356;2023-08-24T09:45:57;5.97;;;1.05;;
35530;SDS011;21637;53.352;-6.356;2023-08-24T09:48:24;3.10;;;0.85;;
35530;SDS011;21637;53.352;-6.356;2023-08-24T09:50:50;4.70;;;1.20;;
35530;SDS011;21637;53.352;-6.356;2023-08-24T09:53:20;2.72;;;1.00;;
35530;SDS011;21637;53.352;-6.356;2023-08-24T09:56:08;4.13;;;1.00;;
35530;SDS011;21637;53.352;-6.356;2023-08-24T09:58:33;5.63;;;1.08;;
35530;SDS011;21637;53.352;-6.356;2023-08-24T10:00:59;3.03;;;0.80;;
35530;SDS011;21637;53.352;-6.356;2023-08-24T10:03:27;2.03;;;0.63;;
35530;SDS011;21637;53.352;-6.356;2023-08-24T10:05:55;6.60;;;1.08;;
35530;SDS011;21637;53.352;-6.356;2023-08-24T10:08:45;6.55;;;1.08;;
35530;SDS011;21637;53.352;-6.356;2023-08-24T10:11:19;3.80;;;0.93;;
35530;SDS011;21637;53.352;-6.356;2023-08-24T10:13:50;5.15;;;1.08;;
35530;SDS011;21637;53.352;-6.356;2023-08-24T10:16:20;6.22;;;0.98;;
35530;SDS011;21637;53.352;-6.356;2023-08-24T10:18:47;2.72;;;1.08;;
35530;SDS011;21637;53.352;-6.356;2023-08-24T10:21:16;4.00;;;0.77;;
35530;SDS011;21637;53.352;-6.356;2023-08-24T10:23:42;3.53;;;0.82;;
35530;SDS011;21637;53.352;-6.356;2023-08-24T10:26:10;4.10;;;0.90;;
35530;SDS011;21637;53.352;-6.356;2023-08-24T10:28:38;3.83;;;1.17;;
35530;SDS011;21637;53.352;-6.356;2023-08-24T10:31:04;3.45;;;1.02;;
35530;SDS011;21637;53.352;-6.356;2023-08-24T10:33:31;2.90;;;0.90;;
35530;SDS011;21637;53.352;-6.356;2023-08-24T10:36:03;2.63;;;1.00;;
35530;SDS011;21637;53.352;-6.356;2023-08-24T10:38:31;3.47;;;0.93;;
35530;SDS011;21637;53.352;-6.356;2023-08-24T10:41:02;5.07;;;1.38;;
35530;SDS011;21637;53.352;-6.356;2023-08-24T10:43:35;3.67;;;0.90;;
35530;SDS011;21637;53.352;-6.356;2023-08-24T10:46:02;4.68;;;0.70;;
35530;SDS011;21637;53.352;-6.356;2023-08-24T10:54:06;3.20;;;1.02;;
35530;SDS011;21637;53.352;-6.356;2023-08-24T10:59:10;5.82;;;0.93;;
35530;SDS011;21637;53.352;-6.356;2023-08-24T11:01:54;4.22;;;1.02;;
35530;SDS011;21637;53.352;-6.356;2023-08-24T11:04:20;3.10;;;0.82;;
35530;SDS011;21637;53.352;-6.356;2023-08-24T11:06:51;3.25;;;0.70;;
35530;SDS011;21637;53.352;-6.356;2023-08-24T11:09:22;4.95;;;0.80;;
35530;SDS011;21637;53.352;-6.356;2023-08-24T11:11:55;2.65;;;0.70;;
35530;SDS011;21637;53.352;-6.356;2023-08-24T11:14:25;3.58;;;0.70;;
35530;SDS011;21637;53.352;-6.356;2023-08-24T11:16:55;4.88;;;0.98;;
35530;SDS011;21637;53.352;-6.356;2023-08-24T11:19:24;5.25;;;0.80;;
35530;SDS011;21637;53.352;-6.356;2023-08-24T11:21:50;3.38;;;0.82;;
35530;SDS011;21637;53.352;-6.356;2023-08-24T11:24:16;2.38;;;0.90;;
35530;SDS011;21637;53.352;-6.356;2023-08-24T11:26:44;4.07;;;0.80;;
35530;SDS011;21637;53.352;-6.356;2023-08-24T11:29:11;2.42;;;0.80;;
35530;SDS011;21637;53.352;-6.356;2023-08-24T11:31:37;3.08;;;0.70;;
35530;SDS011;21637;53.352;-6.356;2023-08-24T11:34:03;2.53;;;0.73;;
35530;SDS011;21637;53.352;-6.356;2023-08-24T11:36:30;4.07;;;0.68;;
35530;SDS011;21637;53.352;-6.356;2023-08-24T11:38:57;5.07;;;0.93;;
35530;SDS011;21637;53.352;-6.356;2023-08-24T11:41:24;2.40;;;0.80;;
35530;SDS011;21637;53.352;-6.356;2023-08-24T11:43:58;2.58;;;0.70;;
35530;SDS011;21637;53.352;-6.356;2023-08-24T11:46:24;2.13;;;0.47;;
35530;SDS011;21637;53.352;-6.356;2023-08-24T11:48:50;4.28;;;0.73;;
35530;SDS011;21637;53.352;-6.356;2023-08-24T11:51:16;3.25;;;0.57;;
35530;SDS011;21637;53.352;-6.356;2023-08-24T11:53:43;1.90;;;0.52;;
35530;SDS011;21637;53.352;-6.356;2023-08-24T11:56:10;3.10;;;0.50;;
35530;SDS011;21637;53.352;-6.356;2023-08-24T11:58:43;2.75;;;0.60;;
35530;SDS011;21637;53.352;-6.356;2023-08-24T12:01:12;4.93;;;0.45;;
35530;SDS011;21637;53.352;-6.356;2023-08-24T12:03:38;1.08;;;0.50;;
35530;SDS011;21637;53.352;-6.356;2023-08-24T12:06:11;2.15;;;0.50;;
35530;SDS011;21637;53.352;-6.356;2023-08-24T12:08:42;3.95;;;0.63;;
35530;SDS011;21637;53.352;-6.356;2023-08-24T12:11:12;3.17;;;0.60;;
35530;SDS011;21637;53.352;-6.356;2023-08-24T12:13:48;2.20;;;0.60;;
35530;SDS011;21637;53.352;-6.356;2023-08-24T12:16:18;4.10;;;1.20;;
35530;SDS011;21637;53.352;-6.356;2023-08-24T12:18:46;3.33;;;0.68;;
35530;SDS011;21637;53.352;-6.356;2023-08-24T12:21:32;2.33;;;0.50;;
35530;SDS011;21637;53.352;-6.356;2023-08-24T12:28:59;5.88;;;0.85;;
35530;SDS011;21637;53.352;-6.356;2023-08-24T12:31:28;4.47;;;0.82;;
35530;SDS011;21637;53.352;-6.356;2023-08-24T12:34:02;1.73;;;0.47;;
35530;SDS011;21637;53.352;-6.356;2023-08-24T12:36:32;2.53;;;0.60;;
35530;SDS011;21637;53.352;-6.356;2023-08-24T12:39:00;1.50;;;0.50;;
35530;SDS011;21637;53.352;-6.356;2023-08-24T12:41:28;1.30;;;0.68;;
35530;SDS011;21637;53.352;-6.356;2023-08-24T12:43:54;1.63;;;0.40;;
35530;SDS011;21637;53.352;-6.356;2023-08-24T12:46:20;2.17;;;0.60;;
35530;SDS011;21637;53.352;-6.356;2023-08-24T12:48:45;1.88;;;0.45;;
35530;SDS011;21637;53.352;-6.356;2023-08-24T12:51:11;1.42;;;0.55;;
35530;SDS011;21637;53.352;-6.356;2023-08-24T12:53:37;3.85;;;0.80;;
35530;SDS011;21637;53.352;-6.356;2023-08-24T12:56:03;1.92;;;0.50;;
35530;SDS011;21637;53.352;-6.356;2023-08-24T12:58:29;2.50;;;0.88;;
35530;SDS011;21637;53.352;-6.356;2023-08-24T13:00:56;2.47;;;0.40;;
35530;SDS011;21637;53.352;-6.356;2023-08-24T13:03:21;3.40;;;0.50;;
35530;SDS011;21637;53.352;-6.356;2023-08-24T13:05:48;1.15;;;0.60;;
35530;SDS011;21637;53.352;-6.356;2023-08-24T13:08:13;1.60;;;0.60;;
35530;SDS011;21637;53.352;-6.356;2023-08-24T13:10:39;2.17;;;0.52;;
35530;SDS011;21637;53.352;-6.356;2023-08-24T13:13:05;1.23;;;0.50;;
35530;SDS011;21637;53.352;-6.356;2023-08-24T13:15:31;3.08;;;0.50;;
35530;SDS011;21637;53.352;-6.356;2023-08-24T13:17:56;2.80;;;0.60;;
35530;SDS011;21637;53.352;-6.356;2023-08-24T13:20:23;2.65;;;0.52;;
35530;SDS011;21637;53.352;-6.356;2023-08-24T13:22:50;1.98;;;0.30;;
35530;SDS011;21637;53.352;-6.356;2023-08-24T13:25:17;5.13;;;1.00;;
35530;SDS011;21637;53.352;-6.356;2023-08-24T13:27:43;3.97;;;0.80;;
35530;SDS011;21637;53.352;-6.356;2023-08-24T13:30:09;5.18;;;0.82;;
35530;SDS011;21637;53.352;-6.356;2023-08-24T13:32:35;2.90;;;0.82;;
35530;SDS011;21637;53.352;-6.356;2023-08-24T13:35:01;1.80;;;0.80;;
35530;SDS011;21637;53.352;-6.356;2023-08-24T13:37:28;3.42;;;1.00;;
35530;SDS011;21637;53.352;-6.356;2023-08-24T13:39:53;1.90;;;0.73;;
35530;SDS011;21637;53.352;-6.356;2023-08-24T13:42:19;2.55;;;0.75;;
35530;SDS011;21637;53.352;-6.356;2023-08-24T13:44:45;3.03;;;0.47;;
35530;SDS011;21637;53.352;-6.356;2023-08-24T13:47:12;0.95;;;0.50;;
35530;SDS011;21637;53.352;-6.356;2023-08-24T13:49:38;2.47;;;0.60;;
35530;SDS011;21637;53.352;-6.356;2023-08-24T13:52:03;1.65;;;0.63;;
35530;SDS011;21637;53.352;-6.356;2023-08-24T13:54:29;2.13;;;0.75;;
35530;SDS011;21637;53.352;-6.356;2023-08-24T13:56:55;2.00;;;0.52;;
35530;SDS011;21637;53.352;-6.356;2023-08-24T13:59:21;1.85;;;0.50;;
35530;SDS011;21637;53.352;-6.356;2023-08-24T14:01:47;2.45;;;0.50;;
35530;SDS011;21637;53.352;-6.356;2023-08-24T14:04:13;2.40;;;0.60;;
35530;SDS011;21637;53.352;-6.356;2023-08-24T14:06:39;1.98;;;0.60;;
35530;SDS011;21637;53.352;-6.356;2023-08-24T14:09:05;2.35;;;0.57;;
35530;SDS011;21637;53.352;-6.356;2023-08-24T14:11:31;2.30;;;0.55;;
35530;SDS011;21637;53.352;-6.356;2023-08-24T14:13:58;2.58;;;0.63;;
35530;SDS011;21637;53.352;-6.356;2023-08-24T14:16:24;1.60;;;0.55;;
35530;SDS011;21637;53.352;-6.356;2023-08-24T14:18:51;0.70;;;0.40;;
35530;SDS011;21637;53.352;-6.356;2023-08-24T14:21:17;1.75;;;0.70;;
35530;SDS011;21637;53.352;-6.356;2023-08-24T14:23:45;1.70;;;0.32;;
35530;SDS011;21637;53.352;-6.356;2023-08-24T14:26:11;4.43;;;0.63;;
35530;SDS011;21637;53.352;-6.356;2023-08-24T14:31:23;3.28;;;0.47;;
35530;SDS011;21637;53.352;-6.356;2023-08-24T14:33:51;2.63;;;0.65;;
35530;SDS011;21637;53.352;-6.356;2023-08-24T14:36:17;1.42;;;0.40;;
35530;SDS011;21637;53.352;-6.356;2023-08-24T14:38:45;3.50;;;0.38;;
35530;SDS011;21637;53.352;-6.356;2023-08-24T14:41:11;2.20;;;0.50;;
35530;SDS011;21637;53.352;-6.356;2023-08-24T14:43:38;1.55;;;0.70;;
35530;SDS011;21637;53.352;-6.356;2023-08-24T14:46:05;1.23;;;0.45;;
35530;SDS011;21637;53.352;-6.356;2023-08-24T14:48:31;0.93;;;0.63;;
35530;SDS011;21637;53.352;-6.356;2023-08-24T14:50:57;4.82;;;0.60;;
35530;SDS011;21637;53.352;-6.356;2023-08-24T14:53:24;3.03;;;0.52;;
35530;SDS011;21637;53.352;-6.356;2023-08-24T14:55:50;4.47;;;0.80;;